Terminal Aerodrome Forecast
Issued by NWS

Home | Current Version | Previous Version | Text Only | Print | Product List | Glossary On
Versions: 1 2 3 4 5 6 7 8 9 10 11 12 13 14 15 16 17 18 19 20 21 22 23 24 25 26 27 28 29 30 31 32 33 34 35 36 37 38 39 40 41 42 43 44 45 46 47 48 49 50
466
FTUS44 KLIX 011744
TAFASD
TAF
KASD 011744Z 0118/0218 31008KT 5SM SHRA OVC025
      TEMPO 0118/0120 2SM TSRA BR BKN008CB
     FM012200 16010KT P6SM -SHRA OVC035
     FM020100 15006KT P6SM OVC030
     FM020900 14003KT 1SM BR OVC004
     FM021500 14003KT P6SM OVC015=

USA.gov is the U.S. government's official web portal to all federal, state and local government web resources and services.